Time;durP1;ratioP1;P1;durP2;ratioP2;P2;SDS_P1;SDS_P2;PMS_P1;PMS_P2;Temp;Humidity;BMP_temperature;BMP_pressure;BME280_temperature;BME280_humidity;BME280_pressure;Samples;Min_cycle;Max_cycle;Signal;HPM_P1;HPM_P2
2023/07/28 03:55:37;;;;;;;37.78;7.65;;;;;;;12.14;100.00;94945.69;5016241;23;20390;-90
2023/07/28 03:58:02;;;;;;;4.57;4.28;;;;;;;12.51;100.00;94909.19;4915672;29;20032;-88
2023/07/28 04:00:29;;;;;;;5.18;4.00;;;;;;;12.91;100.00;94899.19;4916071;29;20485;-88
2023/07/28 04:02:54;;;;;;;3.40;3.20;;;;;;;13.22;100.00;94891.09;4900255;29;20031;-86
2023/07/28 04:05:20;;;;;;;3.53;3.00;;;;;;;13.05;100.00;94886.13;4914989;29;20466;-87
2023/07/28 04:07:45;;;;;;;4.03;2.75;;;;;;;14.55;100.00;94868.97;4933727;29;20429;-86
2023/07/28 04:10:11;;;;;;;2.70;2.25;;;;;;;15.25;100.00;94864.03;4898904;29;20088;-86
2023/07/28 04:12:36;;;;;;;3.70;2.50;;;;;;;14.79;100.00;94858.00;4900586;29;20519;-87
2023/07/28 04:15:02;;;;;;;2.45;2.22;;;;;;;15.19;100.00;94857.00;4898928;29;20432;-86
2023/07/28 04:17:28;;;;;;;3.28;2.38;;;;;;;16.22;100.00;94850.97;4916221;29;20119;-85
2023/07/28 04:19:53;;;;;;;3.53;2.25;;;;;;;15.48;100.00;94847.19;4915377;29;20024;-86
2023/07/28 04:22:21;;;;;;;2.20;2.10;;;;;;;16.25;100.00;94850.56;4915108;29;20095;-86
2023/07/28 04:24:47;;;;;;;2.92;2.25;;;;;;;15.81;100.00;94851.34;4933257;29;20139;-87
2023/07/28 04:27:13;;;;;;;2.72;2.53;;;;;;;16.59;100.00;94840.78;4914545;29;20107;-87
2023/07/28 04:29:39;;;;;;;2.47;2.00;;;;;;;17.80;92.39;94852.50;4916099;29;20122;-84
2023/07/28 04:32:06;;;;;;;3.53;2.50;;;;;;;18.19;90.89;94852.09;4914034;29;20028;-85
2023/07/28 04:34:35;;;;;;;4.07;2.50;;;;;;;19.36;83.59;94855.94;4932981;29;20499;-85
2023/07/28 04:37:00;;;;;;;2.67;2.08;;;;;;;20.25;76.50;94857.38;4898634;29;20581;-85
2023/07/28 04:39:26;;;;;;;3.83;2.42;;;;;;;20.43;73.97;94859.84;4915435;29;20123;-86
2023/07/28 04:41:51;;;;;;;2.63;2.42;;;;;;;20.71;71.96;94862.50;4915733;29;20478;-87
2023/07/28 04:44:17;;;;;;;3.60;2.05;;;;;;;21.14;68.35;94851.44;4898028;29;20884;-86
2023/07/28 04:46:43;;;;;;;2.30;2.10;;;;;;;21.53;67.49;94852.34;4916003;29;20110;-87
2023/07/28 04:49:09;;;;;;;5.05;1.95;;;;;;;21.94;65.23;94853.75;4913744;29;20099;-87
2023/07/28 04:51:34;;;;;;;2.47;1.92;;;;;;;22.12;65.17;94850.03;4932816;29;20020;-87
2023/07/28 04:54:00;;;;;;;3.95;1.90;;;;;;;22.92;64.54;94848.34;4898057;29;20040;-87
2023/07/28 04:56:25;;;;;;;2.33;1.88;;;;;;;23.43;60.05;94851.44;4915235;29;20403;-86
2023/07/28 04:58:50;;;;;;;3.75;1.90;;;;;;;23.34;60.38;94847.66;4914598;29;20553;-86
2023/07/28 05:01:16;;;;;;;2.83;1.73;;;;;;;23.30;63.11;94857.94;4914761;29;20148;-86
2023/07/28 05:03:41;;;;;;;3.33;1.70;;;;;;;23.63;61.62;94850.81;4932838;29;20059;-86
2023/07/28 05:06:07;;;;;;;2.15;2.05;;;;;;;23.61;62.57;94851.84;4898127;29;20035;-88
2023/07/28 05:08:32;;;;;;;5.03;1.90;;;;;;;23.94;61.35;94844.66;4932894;29;20027;-87
2023/07/28 05:10:58;;;;;;;2.03;1.60;;;;;;;25.04;56.69;94854.13;4898041;29;20099;-87
2023/07/28 05:13:23;;;;;;;1.52;1.42;;;;;;;24.71;56.83;94846.59;4915112;29;20028;-87
2023/07/28 05:15:49;;;;;;;1.98;1.65;;;;;;;25.02;57.00;94861.53;4913722;29;20027;-86
2023/07/28 05:18:14;;;;;;;1.70;1.60;;;;;;;25.27;54.57;94856.25;4915305;29;20024;-86
2023/07/28 05:20:39;;;;;;;3.72;2.10;;;;;;;25.46;54.36;94857.31;4898732;29;20055;-86
2023/07/28 05:23:05;;;;;;;2.75;1.65;;;;;;;26.31;50.57;94849.56;4931457;29;20492;-87
2023/07/28 05:25:30;;;;;;;2.22;1.55;;;;;;;26.90;49.54;94857.56;4898899;29;20028;-87
2023/07/28 05:27:56;;;;;;;2.45;1.92;;;;;;;27.30;48.08;94854.63;4913426;29;20024;-86
2023/07/28 05:30:21;;;;;;;2.93;1.40;;;;;;;28.37;45.45;94838.50;4915243;29;20043;-87
2023/07/28 05:32:47;;;;;;;1.70;1.60;;;;;;;28.90;44.57;94844.56;4931099;29;20034;-89
2023/07/28 05:35:13;;;;;;;4.37;1.43;;;;;;;29.11;43.93;94845.84;4899623;29;20070;-88
2023/07/28 05:37:38;;;;;;;2.77;1.60;;;;;;;30.24;41.65;94847.22;4897563;29;20035;-87
2023/07/28 05:40:05;;;;;;;1.50;1.40;;;;;;;30.16;39.92;94848.69;4899164;29;20043;-88
2023/07/28 05:42:30;;;;;;;3.05;1.40;;;;;;;30.02;40.18;94855.13;4931521;29;20110;-87
2023/07/28 05:44:56;;;;;;;1.60;1.50;;;;;;;30.39;39.05;94849.59;4914161;29;20484;-86
2023/07/28 05:47:21;;;;;;;1.40;1.30;;;;;;;30.20;39.76;94846.22;4898944;29;20039;-85
2023/07/28 05:49:46;;;;;;;3.53;1.70;;;;;;;31.11;38.10;94855.91;4897358;29;20534;-86
2023/07/28 05:52:12;;;;;;;1.50;1.23;;;;;;;30.40;38.05;94853.88;4898644;29;20142;-85
2023/07/28 05:54:38;;;;;;;9.27;2.23;;;;;;;31.18;37.58;94842.09;4912439;29;20413;-87
2023/07/28 05:57:03;;;;;;;5.47;1.70;;;;;;;31.95;35.91;94849.91;4914389;29;20028;-85
2023/07/28 05:59:29;;;;;;;3.90;1.43;;;;;;;31.88;36.73;94844.19;4897821;29;20024;-85
2023/07/28 06:01:55;;;;;;;3.63;1.50;;;;;;;31.82;36.25;94841.63;4898712;29;20621;-85
2023/07/28 06:04:20;;;;;;;2.10;1.27;;;;;;;31.63;35.75;94841.03;4898389;29;20028;-84
2023/07/28 06:06:47;;;;;;;7.30;1.93;;;;;;;32.22;35.34;94839.03;4897373;29;20075;-85
2023/07/28 06:09:12;;;;;;;8.35;2.38;;;;;;;32.65;35.04;94840.00;4931601;29;20023;-87
2023/07/28 06:11:38;;;;;;;2.00;1.63;;;;;;;32.73;34.17;94836.53;4913312;29;20034;-86
2023/07/28 06:14:03;;;;;;;2.97;1.47;;;;;;;32.06;34.10;94840.53;4914102;29;20039;-84
2023/07/28 06:16:28;;;;;;;3.03;1.37;;;;;;;32.45;33.66;94827.13;4896948;29;20032;-86
2023/07/28 06:18:54;;;;;;;1.73;1.47;;;;;;;32.82;33.70;94839.22;4898629;29;20036;-87
2023/07/28 06:21:19;;;;;;;2.63;1.33;;;;;;;33.00;32.71;94835.50;4897737;29;20032;-91
2023/07/28 06:23:45;;;;;;;2.65;1.55;;;;;;;32.69;32.79;94824.84;4913887;29;20039;-89
2023/07/28 06:26:10;;;;;;;3.83;1.58;;;;;;;33.18;32.86;94830.94;4914552;29;20039;-90
2023/07/28 06:28:37;;;;;;;2.92;1.77;;;;;;;31.65;33.25;94832.72;4897102;29;20527;-90
2023/07/28 06:31:02;;;;;;;1.55;1.42;;;;;;;31.80;33.32;94811.69;4914814;29;20111;-88
2023/07/28 06:33:28;;;;;;;2.58;1.70;;;;;;;30.98;34.13;94829.97;4912239;29;20116;-86
2023/07/28 06:35:54;;;;;;;4.95;1.80;;;;;;;27.73;38.40;94816.53;4913765;29;20046;-87
2023/07/28 06:38:19;;;;;;;4.30;1.63;;;;;;;26.50;40.32;94824.78;4912477;29;20047;-85
2023/07/28 06:40:45;;;;;;;2.15;1.70;;;;;;;26.87;41.51;94813.72;4898657;29;20074;-86
2023/07/28 06:43:10;;;;;;;1.58;1.25;;;;;;;27.72;42.63;94822.13;4913816;29;20027;-89
2023/07/28 06:45:36;;;;;;;5.53;1.70;;;;;;;26.93;44.31;94817.13;4913799;29;20467;-88
2023/07/28 06:48:01;;;;;;;2.83;1.60;;;;;;;30.04;38.54;94827.00;4914902;29;20035;-90
2023/07/28 06:50:27;;;;;;;2.80;1.70;;;;;;;31.93;34.79;94823.41;4912971;29;20514;-91
2023/07/28 06:52:53;;;;;;;2.30;1.53;;;;;;;32.71;33.97;94825.34;4931523;29;20060;-90
2023/07/28 06:55:21;;;;;;;2.97;1.53;;;;;;;30.23;35.68;94818.88;4912773;29;20039;-90
2023/07/28 06:57:47;;;;;;;4.32;1.60;;;;;;;31.43;33.39;94816.63;4899272;29;20032;-90
2023/07/28 07:00:14;;;;;;;4.50;2.13;;;;;;;29.73;37.44;94805.34;4913128;29;20074;-86
2023/07/28 07:02:40;;;;;;;2.13;1.95;;;;;;;31.49;34.75;94802.78;4897768;29;20091;-88
2023/07/28 07:05:06;;;;;;;3.58;1.60;;;;;;;30.69;34.65;94816.91;4897996;29;20028;-94
2023/07/28 07:07:32;;;;;;;1.75;1.65;;;;;;;28.84;39.26;94803.78;4897734;29;20035;-88
2023/07/28 07:09:58;;;;;;;2.83;2.25;;;;;;;27.36;42.02;94812.81;4902329;29;20033;-88
2023/07/28 07:12:23;;;;;;;2.25;2.05;;;;;;;27.30;42.91;94820.03;4918060;29;20350;-87
2023/07/28 07:14:49;;;;;;;2.55;2.10;;;;;;;26.72;42.85;94819.06;4931341;29;20050;-91
2023/07/28 07:17:15;;;;;;;2.17;1.98;;;;;;;27.02;43.48;94818.13;4926101;29;20065;-91
2023/07/28 07:19:40;;;;;;;2.53;1.98;;;;;;;26.56;42.94;94805.06;4917978;29;20024;-89
2023/07/28 07:22:06;;;;;;;2.70;1.88;;;;;;;25.23;45.78;94815.44;4917427;29;20019;-92
2023/07/28 07:24:32;;;;;;;1.60;1.50;;;;;;;25.94;45.42;94824.16;4917876;29;20043;-91
2023/07/28 07:26:57;;;;;;;5.97;1.88;;;;;;;26.32;44.10;94816.63;4917732;29;20032;-88
2023/07/28 07:29:23;;;;;;;4.18;2.03;;;;;;;26.40;45.14;94821.34;4916371;29;20095;-89
2023/07/28 07:31:48;;;;;;;1.85;1.60;;;;;;;26.70;44.38;94816.69;4917770;29;20339;-89
2023/07/28 07:34:14;;;;;;;4.55;1.77;;;;;;;26.85;42.23;94821.16;4899960;29;20028;-89
2023/07/28 07:36:39;;;;;;;1.33;1.23;;;;;;;27.15;43.51;94820.16;4935150;29;20123;-92
2023/07/28 07:39:05;;;;;;;2.72;1.70;;;;;;;27.33;42.33;94819.50;4916549;29;20114;-93
2023/07/28 07:41:31;;;;;;;3.10;1.42;;;;;;;26.00;42.11;94812.44;4917721;29;20034;-83
2023/07/28 07:43:56;;;;;;;2.10;1.55;;;;;;;26.18;41.86;94811.09;4916466;29;20028;-90
2023/07/28 07:46:22;;;;;;;1.90;1.40;;;;;;;26.95;42.18;94825.63;4901193;29;20077;-93
2023/07/28 07:48:48;;;;;;;1.40;1.30;;;;;;;26.53;42.59;94813.59;4917669;29;20082;-91
2023/07/28 07:51:14;;;;;;;3.72;1.65;;;;;;;26.87;41.90;94824.34;4900302;29;20446;-90
2023/07/28 07:53:39;;;;;;;2.28;1.20;;;;;;;27.04;39.91;94821.28;4901752;29;20038;-91
2023/07/28 07:56:06;;;;;;;1.92;1.30;;;;;;;26.75;40.17;94815.09;4916181;29;20028;-89
2023/07/28 07:58:32;;;;;;;2.00;1.50;;;;;;;26.28;41.30;94810.25;4901359;29;20114;-93
2023/07/28 08:00:58;;;;;;;1.73;1.40;;;;;;;26.92;40.48;94818.19;4915693;29;20090;-91
2023/07/28 08:03:23;;;;;;;2.28;1.50;;;;;;;27.64;40.27;94818.22;4901206;29;20505;-89
2023/07/28 08:05:50;;;;;;;1.40;1.27;;;;;;;27.19;39.63;94823.88;4901498;29;20461;-92
2023/07/28 08:08:17;;;;;;;1.70;1.35;;;;;;;26.73;41.22;94821.47;4916697;29;20046;-89
2023/07/28 08:10:43;;;;;;;3.28;1.20;;;;;;;26.36;39.04;94820.34;4901463;29;20482;-94
2023/07/28 08:13:08;;;;;;;1.27;1.17;;;;;;;26.15;40.62;94817.72;4900337;29;20031;-92
2023/07/28 08:15:33;;;;;;;5.93;1.67;;;;;;;26.82;38.96;94816.38;4916513;29;20030;-88
2023/07/28 08:17:59;;;;;;;1.73;1.40;;;;;;;26.33;39.26;94819.00;4915523;29;20023;-87
2023/07/28 08:20:25;;;;;;;1.50;1.40;;;;;;;26.30;39.78;94811.56;4899447;29;20032;-90
2023/07/28 08:22:50;;;;;;;1.48;1.38;;;;;;;26.43;38.91;94815.50;4900162;29;20054;-85
2023/07/28 08:25:16;;;;;;;3.28;1.60;;;;;;;26.31;38.42;94810.50;4900892;29;20032;-92
2023/07/28 08:27:41;;;;;;;1.73;1.13;;;;;;;26.63;40.37;94824.19;4915984;29;20038;-88
2023/07/28 08:30:08;;;;;;;1.65;1.40;;;;;;;27.10;40.57;94812.25;4916493;29;20043;-89
2023/07/28 08:32:34;;;;;;;2.35;1.40;;;;;;;27.05;41.04;94806.94;4916780;29;20054;-92
2023/07/28 08:34:59;;;;;;;2.50;1.45;;;;;;;27.27;40.62;94798.53;4915133;29;20497;-90
2023/07/28 08:37:24;;;;;;;2.88;1.73;;;;;;;27.52;41.82;94811.63;4900641;29;20031;-87
2023/07/28 08:39:50;;;;;;;1.58;1.48;;;;;;;27.51;40.39;94810.88;4899393;29;20031;-91
2023/07/28 08:42:15;;;;;;;1.77;1.67;;;;;;;26.95;41.83;94799.03;4900496;29;20038;-88
2023/07/28 08:44:41;;;;;;;4.18;1.75;;;;;;;27.08;41.36;94803.72;4899146;29;20136;-89
2023/07/28 08:47:07;;;;;;;3.10;1.52;;;;;;;26.96;42.26;94809.41;4916165;29;20047;-88
2023/07/28 08:49:35;;;;;;;2.10;1.55;;;;;;;26.38;41.98;94805.69;4915582;29;20020;-89
2023/07/28 08:52:01;;;;;;;1.95;1.55;;;;;;;27.26;41.83;94789.75;4899524;29;20020;-91
2023/07/28 08:54:27;;;;;;;1.70;1.60;;;;;;;27.03;40.67;94791.28;4915781;29;20050;-90
2023/07/28 08:56:52;;;;;;;2.15;1.52;;;;;;;27.34;40.57;94791.81;4914426;29;20038;-86
2023/07/28 08:59:26;;;;;;;1.95;1.85;;;;;;;27.36;41.54;94788.84;4900433;29;20417;-89
2023/07/28 09:01:53;;;;;;;2.03;1.80;;;;;;;27.52;42.41;94787.69;4898583;29;20055;-92
2023/07/28 09:04:18;;;;;;;1.67;1.58;;;;;;;26.55;39.57;94784.88;4899677;29;20032;-82
2023/07/28 09:06:48;;;;;;;1.55;1.45;;;;;;;26.91;42.44;94780.16;4899439;29;20083;-91
2023/07/28 09:09:14;;;;;;;2.38;1.90;;;;;;;26.98;42.06;94766.56;4914757;29;20034;-88
2023/07/28 09:11:51;;;;;;;2.58;1.85;;;;;;;27.34;41.98;94775.84;4899830;29;20035;-88
2023/07/28 09:14:17;;;;;;;3.42;1.77;;;;;;;27.05;42.04;94767.84;4914042;29;20035;-89
2023/07/28 09:16:44;;;;;;;1.92;1.50;;;;;;;27.38;42.05;94768.09;4915725;29;20028;-88
2023/07/28 09:19:10;;;;;;;3.33;1.70;;;;;;;27.18;41.41;94751.25;4898213;29;20453;-88
2023/07/28 09:21:37;;;;;;;3.65;1.90;;;;;;;27.40;40.87;94742.78;4915418;29;20034;-85
2023/07/28 09:24:13;;;;;;;3.20;2.03;;;;;;;27.69;42.11;94751.59;4914960;29;20028;-89
2023/07/28 09:26:46;;;;;;;1.63;1.52;;;;;;;26.70;39.78;94744.94;4895393;29;20114;-88
2023/07/28 09:29:15;;;;;;;2.00;1.55;;;;;;;26.07;40.79;94754.50;4915495;29;20055;-84
2023/07/28 09:31:50;;;;;;;2.80;1.60;;;;;;;27.14;41.40;94739.56;4896869;29;20122;-84
2023/07/28 09:34:26;;;;;;;2.00;1.80;;;;;;;27.05;41.18;94733.25;4899271;29;20059;-84
2023/07/28 09:36:59;;;;;;;1.75;1.60;;;;;;;27.04;41.79;94738.84;4898045;29;20117;-88
2023/07/28 09:39:26;;;;;;;1.70;1.60;;;;;;;27.55;42.01;94734.69;4931754;29;20035;-89
2023/07/28 09:41:51;;;;;;;1.75;1.65;;;;;;;27.75;40.85;94725.69;4899284;29;20074;-86
2023/07/28 09:44:17;;;;;;;2.97;1.90;;;;;;;27.30;37.93;94707.50;4897424;29;20051;-86
2023/07/28 09:46:53;;;;;;;1.88;1.73;;;;;;;27.50;38.94;94716.13;4914650;29;20040;-90
2023/07/28 09:49:27;;;;;;;2.22;2.03;;;;;;;27.61;39.10;94711.50;4897611;29;20023;-87
2023/07/28 09:51:54;;;;;;;2.75;1.60;;;;;;;27.53;38.24;94702.25;4914536;29;20090;-87
2023/07/28 09:54:29;;;;;;;2.33;1.70;;;;;;;27.75;40.55;94699.06;4898129;29;20047;-88
2023/07/28 09:56:59;;;;;;;7.75;1.77;;;;;;;27.64;38.89;94698.41;4898049;29;20541;-85
2023/07/28 09:59:45;;;;;;;2.10;2.00;;;;;;;27.79;38.17;94697.44;4898858;29;20030;-91
2023/07/28 10:02:11;;;;;;;2.00;1.80;;;;;;;27.46;36.56;94688.47;4892985;29;20031;-88
2023/07/28 10:04:37;;;;;;;1.70;1.60;;;;;;;26.87;37.19;94698.59;4914716;29;20023;-88
2023/07/28 10:07:05;;;;;;;2.17;1.33;;;;;;;27.66;39.56;94693.59;4897465;29;20038;-86
2023/07/28 10:09:33;;;;;;;2.70;1.40;;;;;;;27.79;35.44;94696.63;4898529;29;20020;-87
2023/07/28 10:11:59;;;;;;;1.95;1.83;;;;;;;27.71;35.35;94698.03;4914437;29;20030;-90
2023/07/28 10:14:30;;;;;;;1.80;1.70;;;;;;;28.13;38.35;94686.63;4898121;29;20038;-88
2023/07/28 10:16:57;;;;;;;2.70;1.75;;;;;;;28.04;37.09;94696.31;4898524;29;20434;-87
2023/07/28 10:19:24;;;;;;;1.73;1.60;;;;;;;27.87;38.27;94688.78;4912805;29;20111;-88
2023/07/28 10:22:01;;;;;;;1.97;1.87;;;;;;;27.80;37.82;94692.91;4898516;29;20038;-86
2023/07/28 10:24:50;;;;;;;2.00;1.90;;;;;;;27.85;38.64;94690.97;4897129;29;20039;-89
2023/07/28 10:27:34;;;;;;;2.17;1.88;;;;;;;27.69;37.10;94693.00;4897362;29;20123;-85
2023/07/28 10:30:01;;;;;;;2.25;1.80;;;;;;;27.65;38.32;94686.66;4930930;29;20023;-90
2023/07/28 10:32:28;;;;;;;4.82;2.15;;;;;;;27.48;37.89;94675.69;4912471;29;20466;-92
2023/07/28 10:35:02;;;;;;;3.30;1.77;;;;;;;27.72;38.97;94681.00;4898544;29;20095;-88
2023/07/28 10:37:28;;;;;;;1.80;1.63;;;;;;;27.73;38.66;94682.59;4896992;29;20407;-84
2023/07/28 10:40:29;;;;;;;2.05;1.95;;;;;;;27.80;38.57;94679.59;4897848;29;20038;-85
2023/07/28 10:42:55;;;;;;;2.55;2.30;;;;;;;28.05;38.83;94674.75;4913440;29;20036;-88
2023/07/28 10:45:23;;;;;;;4.18;3.78;;;;;;;28.34;41.06;94661.31;4912562;29;20585;-89
2023/07/28 10:47:48;;;;;;;2.38;1.90;;;;;;;28.36;39.17;94669.00;4898513;29;20118;-90
2023/07/28 10:50:14;;;;;;;3.90;3.00;;;;;;;28.40;39.69;94664.69;4896648;29;20659;-87
2023/07/28 10:52:44;;;;;;;2.60;1.77;;;;;;;27.92;38.90;94658.66;4898156;29;20028;-84
2023/07/28 10:55:23;;;;;;;5.82;1.90;;;;;;;28.12;39.15;94658.44;4897152;29;20159;-91
2023/07/28 10:57:50;;;;;;;15.40;11.30;;;;;;;28.35;39.05;94649.56;4897643;29;20027;-90
2023/07/28 11:00:18;;;;;;;17.90;11.50;;;;;;;28.56;41.00;94647.38;4931215;29;20035;-90
2023/07/28 11:02:44;;;;;;;3.05;2.67;;;;;;;28.65;41.44;94654.47;4912757;29;20032;-89
2023/07/28 11:05:12;;;;;;;4.20;1.90;;;;;;;28.54;39.30;94655.69;4914107;29;20030;-87
2023/07/28 11:07:42;;;;;;;3.08;2.88;;;;;;;28.48;38.45;94646.16;4902966;29;20031;-86
2023/07/28 11:10:08;;;;;;;2.80;2.60;;;;;;;28.74;39.12;94650.03;4921644;29;20031;-86
2023/07/28 11:12:34;;;;;;;2.92;1.83;;;;;;;28.56;40.74;94642.84;4898413;29;20038;-94
2023/07/28 11:14:59;;;;;;;2.72;1.73;;;;;;;28.33;39.32;94643.72;4897481;29;20019;-87
2023/07/28 11:17:27;;;;;;;3.28;1.75;;;;;;;28.68;40.05;94635.22;4898158;29;20257;-88
2023/07/28 11:19:52;;;;;;;4.07;2.00;;;;;;;28.88;39.53;94630.63;4897275;29;20035;-92
2023/07/28 11:22:18;;;;;;;5.93;2.17;;;;;;;28.60;39.57;94624.41;4898191;29;20035;-91
2023/07/28 11:24:45;;;;;;;3.42;2.00;;;;;;;28.60;39.39;94622.53;4897004;29;20066;-90
2023/07/28 11:27:10;;;;;;;4.22;2.00;;;;;;;28.66;40.13;94625.94;4898315;29;20032;-88
2023/07/28 11:29:36;;;;;;;2.85;2.17;;;;;;;28.08;39.25;94614.78;4896687;29;20028;-87
2023/07/28 11:32:01;;;;;;;7.57;2.05;;;;;;;28.71;41.58;94618.63;4898277;29;20060;-93
2023/07/28 11:34:27;;;;;;;2.00;1.90;;;;;;;28.76;40.91;94618.56;4897810;29;20131;-91
2023/07/28 11:36:53;;;;;;;6.13;2.33;;;;;;;28.82;40.37;94613.13;4897821;29;20095;-87
2023/07/28 11:39:21;;;;;;;5.07;2.00;;;;;;;28.45;38.55;94617.41;4898034;29;20477;-86
2023/07/28 11:41:48;;;;;;;7.20;2.47;;;;;;;27.30;38.82;94604.53;4896936;29;20059;-87
2023/07/28 11:44:13;;;;;;;2.00;1.90;;;;;;;27.91;39.76;94606.47;4913465;29;20417;-89
2023/07/28 11:46:41;;;;;;;3.13;2.28;;;;;;;28.27;39.66;94605.72;4896057;29;20038;-86
2023/07/28 11:49:13;;;;;;;2.20;1.97;;;;;;;28.42;40.18;94607.34;4898072;29;20090;-94
2023/07/28 11:51:39;;;;;;;2.45;2.25;;;;;;;28.71;40.91;94593.81;4913075;29;20386;-89
2023/07/28 11:54:06;;;;;;;7.32;2.25;;;;;;;28.82;39.39;94599.78;4897963;29;20509;-89
2023/07/28 11:56:31;;;;;;;5.43;2.28;;;;;;;28.50;40.32;94593.38;4901811;29;20070;-91
2023/07/28 11:58:58;;;;;;;2.30;2.10;;;;;;;28.73;41.47;94589.00;4900251;29;20063;-93
2023/07/28 12:01:23;;;;;;;7.43;4.45;;;;;;;29.09;41.42;94597.19;4902136;29;20028;-90
2023/07/28 12:03:49;;;;;;;5.35;3.90;;;;;;;28.92;41.42;94572.94;4902703;29;20094;-91
2023/07/28 12:06:14;;;;;;;5.15;3.72;;;;;;;28.91;39.32;94587.34;4902151;29;20449;-93
2023/07/28 12:08:41;;;;;;;3.75;2.25;;;;;;;28.62;39.30;94582.22;4900648;29;20020;-92
2023/07/28 12:11:13;;;;;;;3.55;2.30;;;;;;;28.88;41.35;94578.06;4901494;29;20083;-89
2023/07/28 12:13:51;;;;;;;4.78;2.30;;;;;;;28.57;37.93;94575.13;4900867;29;20095;-88
2023/07/28 12:16:39;;;;;;;3.13;1.95;;;;;;;28.38;38.07;94569.03;4899395;29;20378;-87
2023/07/28 12:19:05;;;;;;;4.13;2.25;;;;;;;28.63;40.06;94573.94;4901053;29;20115;-90
2023/07/28 12:21:31;;;;;;;3.38;2.10;;;;;;;28.58;38.56;94568.69;4899252;29;20414;-87
2023/07/28 12:23:56;;;;;;;3.33;2.25;;;;;;;28.55;39.25;94566.59;4916785;29;20544;-86
2023/07/28 12:26:22;;;;;;;6.90;2.60;;;;;;;28.71;40.53;94575.97;4900036;29;20116;-88
2023/07/28 12:28:48;;;;;;;4.88;2.28;;;;;;;28.81;39.98;94572.31;4915811;29;20023;-89
2023/07/28 12:31:13;;;;;;;2.50;2.30;;;;;;;28.67;39.36;94572.28;4901133;29;20042;-88
2023/07/28 12:33:39;;;;;;;4.10;2.38;;;;;;;28.81;39.12;94574.19;4899805;29;20024;-88
2023/07/28 12:36:05;;;;;;;3.75;2.33;;;;;;;28.94;40.16;94571.56;4901196;29;20027;-92
2023/07/28 12:38:31;;;;;;;4.82;2.40;;;;;;;28.97;40.90;94556.81;4899357;29;20024;-88
2023/07/28 12:40:56;;;;;;;2.92;2.50;;;;;;;28.84;39.63;94566.41;4900649;29;20034;-87
2023/07/28 12:43:25;;;;;;;4.70;2.60;;;;;;;28.93;40.62;94553.19;4899611;29;20051;-91
2023/07/28 12:45:51;;;;;;;5.22;2.47;;;;;;;28.85;38.31;94548.53;4900070;29;20063;-91
2023/07/28 12:48:17;;;;;;;4.55;2.00;;;;;;;28.84;38.48;94563.72;4915933;29;20028;-92
2023/07/28 12:50:43;;;;;;;4.93;2.40;;;;;;;28.98;38.86;94559.22;4899387;29;20098;-89
2023/07/28 12:53:08;;;;;;;4.07;2.70;;;;;;;28.60;37.89;94560.41;4900330;29;20031;-89
2023/07/28 12:55:34;;;;;;;5.32;2.83;;;;;;;28.84;39.61;94541.59;4899476;29;20502;-88
2023/07/28 12:58:00;;;;;;;2.78;2.47;;;;;;;28.94;40.05;94546.75;4934441;29;20040;-92
2023/07/28 13:00:25;;;;;;;6.03;2.28;;;;;;;29.20;39.76;94550.53;4898943;29;20034;-89
2023/07/28 13:02:51;;;;;;;5.72;2.50;;;;;;;28.70;39.60;94539.72;4900465;29;20417;-92
2023/07/28 13:05:17;;;;;;;3.47;2.35;;;;;;;28.80;40.16;94544.09;4898035;29;20137;-92
2023/07/28 13:07:42;;;;;;;2.67;2.50;;;;;;;28.75;39.70;94536.16;4899761;29;20031;-88
2023/07/28 13:10:10;;;;;;;3.10;2.58;;;;;;;28.66;38.96;94538.72;4899947;29;20020;-92
2023/07/28 13:12:36;;;;;;;5.37;2.27;;;;;;;28.50;38.92;94532.03;4900589;29;20024;-94
2023/07/28 13:15:02;;;;;;;2.53;2.38;;;;;;;28.83;40.05;94529.38;4900635;29;20043;-90
2023/07/28 13:17:28;;;;;;;5.03;2.38;;;;;;;28.61;40.41;94533.44;4914096;29;20111;-86
2023/07/28 13:19:53;;;;;;;2.78;2.50;;;;;;;28.57;38.75;94523.66;4899572;29;20209;-87
2023/07/28 13:22:19;;;;;;;6.57;2.70;;;;;;;28.49;39.13;94524.31;4898225;29;20111;-90
2023/07/28 13:24:45;;;;;;;5.63;2.30;;;;;;;28.36;39.75;94525.88;4899507;29;20235;-86
2023/07/28 13:27:10;;;;;;;6.43;2.75;;;;;;;29.03;39.82;94515.63;4914165;29;20035;-91
2023/07/28 13:29:36;;;;;;;3.40;2.53;;;;;;;29.24;38.61;94509.66;4899084;29;20114;-88
2023/07/28 13:32:01;;;;;;;4.20;2.55;;;;;;;29.07;37.82;94505.94;4898434;29;20035;-89
2023/07/28 13:34:27;;;;;;;3.67;2.53;;;;;;;28.97;39.44;94512.28;4898946;29;20397;-88
2023/07/28 13:36:53;;;;;;;3.30;2.85;;;;;;;28.82;39.97;94503.78;4916354;29;20027;-90
2023/07/28 13:39:19;;;;;;;3.85;2.50;;;;;;;28.97;39.75;94498.13;4898564;29;20023;-87
2023/07/28 13:41:44;;;;;;;2.97;2.60;;;;;;;28.84;40.47;94505.06;4899880;29;20034;-90
2023/07/28 13:44:10;;;;;;;6.80;2.42;;;;;;;28.74;39.43;94494.56;4897914;29;20028;-91
2023/07/28 13:46:35;;;;;;;5.53;2.30;;;;;;;29.07;39.22;94495.28;4916494;29;20027;-88
2023/07/28 13:49:01;;;;;;;4.82;2.72;;;;;;;29.10;39.44;94497.34;4913965;29;20028;-90
2023/07/28 13:51:27;;;;;;;3.22;2.90;;;;;;;28.93;41.04;94502.50;4899961;29;20075;-92
2023/07/28 13:53:52;;;;;;;4.55;2.47;;;;;;;28.83;39.84;94492.81;4914801;29;20020;-89
2023/07/28 13:56:18;;;;;;;4.72;2.38;;;;;;;28.64;39.96;94500.84;4913496;29;20054;-92
2023/07/28 13:58:43;;;;;;;4.40;2.70;;;;;;;28.78;40.81;94503.56;4915650;29;20035;-92
2023/07/28 14:01:09;;;;;;;2.40;2.17;;;;;;;28.93;41.07;94508.59;4897978;29;20529;-91
2023/07/28 14:03:34;;;;;;;6.97;2.88;;;;;;;28.92;40.11;94499.03;4914656;29;20374;-86
2023/07/28 14:05:59;;;;;;;7.05;2.53;;;;;;;28.91;40.33;94494.78;4897531;29;20027;-91
2023/07/28 14:08:25;;;;;;;3.22;2.92;;;;;;;28.89;40.52;94490.84;4899391;29;20481;-89
2023/07/28 14:10:52;;;;;;;9.27;2.55;;;;;;;28.75;40.59;94493.50;4913639;29;20392;-87
2023/07/28 14:13:17;;;;;;;21.05;3.60;;;;;;;28.56;40.77;94474.09;4898196;29;20055;-87
2023/07/28 14:15:43;;;;;;;4.93;2.80;;;;;;;28.58;39.87;94478.03;4914022;29;20490;-88
2023/07/28 14:18:08;;;;;;;4.70;1.95;;;;;;;28.30;39.83;94468.41;4897236;29;20027;-84
2023/07/28 14:20:34;;;;;;;4.47;2.70;;;;;;;28.44;40.67;94481.78;4898895;29;20074;-89
2023/07/28 14:23:03;;;;;;;2.50;2.30;;;;;;;28.46;40.13;94477.72;4912739;29;20028;-90
2023/07/28 14:25:28;;;;;;;;;;;;;;;28.76;42.03;94492.41;4915577;29;20031;-87
2023/07/28 14:27:53;;;;;;;5.07;2.70;;;;;;;28.89;41.46;94472.97;4913495;29;19925;-87
2023/07/28 14:30:19;;;;;;;11.43;2.72;;;;;;;28.66;41.40;94476.59;4931323;29;20280;-88
2023/07/28 14:32:44;;;;;;;21.73;3.35;;;;;;;28.54;41.17;94469.06;4897877;29;20059;-88
2023/07/28 14:35:10;;;;;;;5.55;3.28;;;;;;;28.43;40.65;94475.66;4913421;29;20482;-90
2023/07/28 14:37:35;;;;;;;2.58;2.10;;;;;;;28.51;40.38;94469.63;4914334;29;20063;-90
2023/07/28 14:40:01;;;;;;;7.63;2.63;;;;;;;28.55;40.72;94467.16;4897155;29;20123;-85
2023/07/28 14:42:26;;;;;;;4.00;2.30;;;;;;;28.43;41.44;94466.88;4914148;29;20213;-84
2023/07/28 14:44:51;;;;;;;3.08;2.28;;;;;;;28.55;41.24;94464.50;4912881;29;20066;-85
2023/07/28 14:47:17;;;;;;;6.60;2.50;;;;;;;28.38;41.58;94470.44;4897935;29;20482;-88
2023/07/28 14:49:42;;;;;;;2.88;2.58;;;;;;;28.33;40.64;94459.84;4912741;29;20047;-88
2023/07/28 14:52:07;;;;;;;5.68;2.40;;;;;;;28.53;41.71;94462.16;4898246;29;20024;-89
2023/07/28 14:54:33;;;;;;;4.50;2.70;;;;;;;28.34;41.32;94460.63;4898760;29;20051;-90
2023/07/28 14:56:58;;;;;;;2.80;2.58;;;;;;;28.48;41.84;94464.88;4926510;29;20035;-87
2023/07/28 14:59:24;;;;;;;2.95;2.17;;;;;;;28.65;42.06;94465.16;4907839;29;20512;-89
2023/07/28 15:01:49;;;;;;;4.82;2.80;;;;;;;28.75;42.35;94454.28;4896977;29;20039;-88
2023/07/28 15:04:15;;;;;;;5.72;2.28;;;;;;;28.76;41.20;94455.88;4931608;29;20107;-87
2023/07/28 15:06:41;;;;;;;2.53;2.33;;;;;;;28.58;42.38;94459.38;4896928;29;20553;-88
2023/07/28 15:09:06;;;;;;;3.90;2.38;;;;;;;28.49;42.32;94460.34;4898552;29;20110;-89
2023/07/28 15:11:32;;;;;;;3.22;2.40;;;;;;;28.62;42.13;94465.69;4897147;29;20091;-89
2023/07/28 15:13:57;;;;;;;4.90;2.70;;;;;;;28.50;41.32;94461.94;4914190;29;20039;-86
2023/07/28 15:16:23;;;;;;;4.57;2.40;;;;;;;28.44;40.83;94457.78;4912817;29;20556;-85
2023/07/28 15:18:49;;;;;;;2.60;2.40;;;;;;;28.46;41.91;94445.75;4897475;29;20028;-88
2023/07/28 15:21:14;;;;;;;2.50;2.30;;;;;;;28.45;41.77;94448.72;4898019;29;20039;-88
2023/07/28 15:23:39;;;;;;;3.97;2.50;;;;;;;28.45;42.02;94451.38;4912529;29;20028;-86
2023/07/28 15:26:05;;;;;;;2.80;2.60;;;;;;;28.54;42.67;94454.94;4913560;29;20035;-86